createdAt,value
2022-10-10T00:01:18.134Z,11.06
2022-10-10T00:03:45.048Z,11.07
2022-10-10T00:06:13.114Z,10.99
2022-10-10T00:08:40.356Z,10.97
2022-10-10T00:11:07.349Z,10.97
2022-10-10T00:13:34.651Z,10.94
2022-10-10T00:16:02.111Z,10.84
2022-10-10T00:18:30.163Z,10.86
2022-10-10T00:20:57.145Z,10.69
2022-10-10T00:23:24.174Z,10.57
2022-10-10T00:25:51.492Z,10.56
2022-10-10T00:28:18.311Z,10.53
2022-10-10T00:30:45.590Z,10.54
2022-10-10T00:33:13.178Z,10.44
2022-10-10T00:35:40.685Z,10.39
2022-10-10T00:38:07.720Z,10.29
2022-10-10T00:40:34.639Z,10.03
2022-10-10T00:43:01.415Z,9.89
2022-10-10T00:45:28.026Z,10.07
2022-10-10T00:48:18.728Z,9.95
2022-10-10T00:51:08.034Z,9.92
2022-10-10T00:53:41.496Z,9.86
2022-10-10T00:56:10.053Z,9.78
2022-10-10T00:58:40.619Z,9.74
2022-10-10T01:01:08.333Z,9.61
2022-10-10T01:03:35.293Z,9.63
2022-10-10T01:06:02.282Z,9.60
2022-10-10T01:08:28.963Z,9.53
2022-10-10T01:11:13.351Z,9.59
2022-10-10T01:13:55.335Z,9.43
2022-10-10T01:16:32.572Z,9.42
2022-10-10T01:19:47.530Z,9.47
2022-10-10T01:22:37.781Z,9.57
2022-10-10T01:25:38.316Z,9.05
2022-10-10T01:28:17.922Z,9.43
2022-10-10T01:30:45.376Z,9.37
2022-10-10T01:33:17.424Z,9.18
2022-10-10T01:35:43.944Z,9.53
2022-10-10T01:38:19.810Z,9.41
2022-10-10T01:40:52.723Z,9.36
2022-10-10T01:43:19.910Z,9.37
2022-10-10T01:45:49.166Z,9.35
2022-10-10T01:48:22.412Z,9.36
2022-10-10T01:51:14.439Z,9.38
2022-10-10T01:54:07.045Z,9.41
2022-10-10T01:56:39.285Z,9.44
2022-10-10T01:59:43.792Z,9.55
2022-10-10T02:02:44.531Z,9.60
2022-10-10T02:05:16.108Z,9.63
2022-10-10T02:08:01.020Z,9.63
2022-10-10T02:10:34.892Z,9.60
2022-10-10T02:13:05.198Z,9.69
2022-10-10T02:15:40.631Z,9.47
2022-10-10T02:18:10.992Z,9.67
2022-10-10T02:20:37.653Z,9.66
2022-10-10T02:23:07.218Z,9.63
2022-10-10T02:25:39.101Z,9.61
2022-10-10T02:28:13.246Z,9.60
2022-10-10T02:30:44.637Z,9.68
2022-10-10T02:33:15.954Z,9.73
2022-10-10T02:35:46.442Z,9.83
2022-10-10T02:38:15.536Z,9.87
2022-10-10T02:40:45.143Z,9.77
2022-10-10T02:43:14.073Z,9.52
2022-10-10T02:45:41.576Z,9.36
2022-10-10T02:48:08.865Z,9.33
2022-10-10T02:50:35.854Z,9.44
2022-10-10T02:53:02.555Z,9.44
2022-10-10T02:55:29.252Z,9.54
2022-10-10T02:57:56.109Z,9.54
2022-10-10T03:00:22.898Z,9.68
2022-10-10T03:02:49.868Z,9.64
2022-10-10T03:05:16.982Z,9.74
2022-10-10T03:07:43.704Z,9.77
2022-10-10T03:10:10.627Z,9.70
2022-10-10T03:12:37.722Z,9.69
2022-10-10T03:15:09.337Z,8.92
2022-10-10T03:17:38.268Z,9.23
2022-10-10T03:20:05.558Z,9.03
2022-10-10T03:22:32.551Z,8.84
2022-10-10T03:24:59.261Z,8.96
2022-10-10T03:27:25.923Z,9.21
2022-10-10T03:29:52.559Z,9.16
2022-10-10T03:32:19.122Z,9.44
2022-10-10T03:34:46.159Z,9.36
2022-10-10T03:37:12.867Z,9.22
2022-10-10T03:39:40.133Z,9.14
2022-10-10T03:42:06.851Z,9.05
2022-10-10T03:44:33.566Z,8.92
2022-10-10T03:47:00.294Z,8.67
2022-10-10T03:49:26.921Z,8.51
2022-10-10T03:51:53.989Z,8.24
2022-10-10T03:54:20.682Z,8.25
2022-10-10T03:56:47.585Z,8.06
2022-10-10T03:59:14.429Z,8.26
2022-10-10T04:01:41.470Z,8.06
2022-10-10T04:04:08.558Z,7.77
2022-10-10T04:06:35.502Z,7.60
2022-10-10T04:09:02.347Z,7.99
2022-10-10T04:11:29.794Z,8.06
2022-10-10T04:13:56.470Z,7.92
2022-10-10T04:16:23.214Z,7.99
2022-10-10T04:18:49.921Z,7.93
2022-10-10T04:21:16.668Z,7.77
2022-10-10T04:23:43.458Z,7.72
2022-10-10T04:26:10.140Z,7.49
2022-10-10T04:28:36.884Z,7.60
2022-10-10T04:31:03.693Z,7.33
2022-10-10T04:33:30.864Z,7.20
2022-10-10T04:35:57.543Z,7.50
2022-10-10T04:38:24.263Z,7.30
2022-10-10T04:40:51.318Z,7.28
2022-10-10T04:43:18.969Z,7.23
2022-10-10T04:45:46.309Z,7.34
2022-10-10T04:48:13.180Z,7.49
2022-10-10T04:50:40.540Z,7.25
2022-10-10T04:53:07.688Z,7.20
2022-10-10T04:55:34.395Z,7.31
2022-10-10T04:58:01.247Z,7.44
2022-10-10T05:00:27.879Z,7.60
2022-10-10T05:02:54.821Z,7.74
2022-10-10T05:05:21.652Z,7.74
2022-10-10T05:07:53.063Z,7.60
2022-10-10T05:10:22.065Z,7.82
2022-10-10T05:12:49.335Z,7.72
2022-10-10T05:15:16.331Z,7.88
2022-10-10T05:17:43.096Z,7.97
2022-10-10T05:20:10.066Z,7.97
2022-10-10T05:22:39.967Z,7.59
2022-10-10T05:25:07.283Z,8.02
2022-10-10T05:27:34.119Z,7.51
2022-10-10T05:30:00.942Z,8.11
2022-10-10T05:32:27.647Z,7.94
2022-10-10T05:34:54.730Z,7.90
2022-10-10T05:37:21.470Z,8.42
2022-10-10T05:39:53.694Z,8.06
2022-10-10T05:42:21.276Z,8.52
2022-10-10T05:44:47.956Z,8.92
2022-10-10T05:47:15.036Z,9.06
2022-10-10T05:49:42.303Z,9.22
2022-10-10T05:52:09.354Z,9.14
2022-10-10T05:54:36.111Z,9.34
2022-10-10T05:57:03.288Z,9.69
2022-10-10T05:59:30.189Z,9.89
2022-10-10T06:01:57.531Z,10.15
2022-10-10T06:04:24.222Z,10.22
2022-10-10T06:06:51.124Z,10.30
2022-10-10T06:09:17.850Z,10.47
2022-10-10T06:11:44.683Z,10.29
2022-10-10T06:14:11.393Z,10.65
2022-10-10T06:16:39.678Z,10.90
2022-10-10T06:19:06.549Z,11.16
2022-10-10T06:21:33.262Z,11.48
2022-10-10T06:23:59.985Z,11.70
2022-10-10T06:26:26.998Z,12.19
2022-10-10T06:28:53.749Z,12.35
2022-10-10T06:31:20.628Z,12.75
2022-10-10T06:33:48.181Z,12.99
2022-10-10T06:36:16.751Z,13.20
2022-10-10T06:38:45.393Z,13.38
2022-10-10T06:41:12.894Z,13.57
2022-10-10T06:43:39.717Z,13.76
2022-10-10T06:46:06.524Z,13.77
2022-10-10T06:48:35.299Z,13.59
2022-10-10T06:51:04.866Z,13.70
2022-10-10T06:53:32.877Z,13.43
2022-10-10T06:56:01.046Z,13.43
2022-10-10T06:58:29.161Z,13.28
2022-10-10T07:00:59.445Z,13.29
2022-10-10T07:03:26.571Z,13.54
2022-10-10T07:05:58.304Z,13.60
2022-10-10T07:08:25.868Z,13.78
2022-10-10T07:10:52.618Z,13.75
2022-10-10T07:13:20.384Z,13.99
2022-10-10T07:15:47.096Z,14.14
2022-10-10T07:18:14.571Z,14.10
2022-10-10T07:20:41.914Z,14.35
2022-10-10T07:23:08.597Z,14.60
2022-10-10T07:25:38.975Z,14.80
2022-10-10T07:28:07.551Z,14.90
2022-10-10T07:30:39.342Z,15.05
2022-10-10T07:33:05.952Z,15.19
2022-10-10T07:35:32.913Z,15.41
2022-10-10T07:37:59.581Z,15.15
2022-10-10T07:40:26.247Z,15.03
2022-10-10T07:42:53.455Z,15.35
2022-10-10T07:45:20.428Z,15.17
2022-10-10T07:47:47.140Z,15.23
2022-10-10T07:50:13.776Z,15.58
2022-10-10T07:52:41.104Z,15.63
2022-10-10T07:55:10.410Z,15.27
2022-10-10T07:57:37.564Z,15.48
2022-10-10T08:00:07.092Z,15.48
2022-10-10T08:02:33.729Z,15.75
2022-10-10T08:05:00.286Z,15.69
2022-10-10T08:07:26.895Z,15.61
2022-10-10T08:09:53.733Z,15.92
2022-10-10T08:12:20.462Z,16.11
2022-10-10T08:14:47.367Z,16.16
2022-10-10T08:17:14.108Z,16.34
2022-10-10T08:19:40.717Z,16.41
2022-10-10T08:22:07.581Z,16.51
2022-10-10T08:24:34.376Z,16.58
2022-10-10T08:27:01.089Z,16.77
2022-10-10T08:29:27.840Z,16.92
2022-10-10T08:31:54.694Z,16.67
2022-10-10T08:34:21.339Z,17.03
2022-10-10T08:36:48.451Z,17.18
2022-10-10T08:39:16.994Z,17.51
2022-10-10T08:41:57.606Z,17.02
2022-10-10T08:44:44.867Z,17.23
2022-10-10T08:47:17.455Z,17.26
2022-10-10T08:49:58.872Z,17.53
2022-10-10T08:52:32.114Z,17.40
2022-10-10T08:55:02.282Z,16.98
2022-10-10T08:57:33.590Z,17.40
2022-10-10T09:00:05.286Z,17.82
2022-10-10T09:02:53.183Z,18.12
2022-10-10T09:05:55.447Z,18.30
2022-10-10T09:08:26.859Z,18.73
2022-10-10T09:11:41.764Z,18.61
2022-10-10T09:14:26.600Z,18.18
2022-10-10T09:17:11.482Z,18.44
2022-10-10T09:19:58.175Z,17.82
2022-10-10T09:22:29.075Z,18.33
2022-10-10T09:25:06.515Z,18.51
2022-10-10T09:27:40.744Z,18.83
2022-10-10T09:30:18.108Z,18.34
2022-10-10T09:32:58.674Z,18.74
2022-10-10T09:35:28.081Z,19.04
2022-10-10T09:38:23.089Z,19.51
2022-10-10T09:40:58.607Z,19.36
2022-10-10T09:43:31.905Z,19.31
2022-10-10T09:45:58.852Z,19.27
2022-10-10T09:48:44.300Z,19.06
2022-10-10T09:51:16.715Z,19.12
2022-10-10T09:53:44.776Z,18.73
2022-10-10T09:56:35.185Z,19.18
2022-10-10T09:59:01.913Z,19.13
2022-10-10T10:01:33.770Z,18.90
2022-10-10T10:04:28.325Z,19.10
2022-10-10T10:07:17.838Z,18.82
2022-10-10T10:09:56.893Z,18.43
2022-10-10T10:12:29.574Z,18.50
2022-10-10T10:15:03.725Z,18.64
2022-10-10T10:17:30.622Z,19.02
2022-10-10T10:19:57.478Z,18.83
2022-10-10T10:22:31.877Z,19.22
2022-10-10T10:25:00.780Z,19.74
2022-10-10T10:27:29.638Z,19.95
2022-10-10T10:29:59.682Z,19.75
2022-10-10T10:32:41.740Z,19.88
2022-10-10T10:35:53.437Z,19.96
2022-10-10T10:38:32.172Z,20.30
2022-10-10T10:40:58.957Z,20.33
2022-10-10T10:43:54.020Z,19.90
2022-10-10T10:46:38.998Z,20.24
2022-10-10T10:49:23.158Z,20.43
2022-10-10T10:52:07.374Z,20.42
2022-10-10T10:54:58.323Z,20.61
2022-10-10T10:57:34.931Z,20.29
2022-10-10T11:00:17.153Z,20.09
2022-10-10T11:03:28.009Z,20.18
2022-10-10T11:06:49.110Z,20.09
2022-10-10T11:09:55.139Z,19.70
2022-10-10T11:12:46.714Z,20.26
2022-10-10T11:15:30.801Z,20.05
2022-10-10T11:18:14.715Z,20.29
2022-10-10T11:20:46.475Z,20.80
2022-10-10T11:23:31.117Z,20.75
2022-10-10T11:26:06.556Z,20.57
2022-10-10T11:28:40.684Z,20.45
2022-10-10T11:31:22.346Z,20.01
2022-10-10T11:33:57.264Z,20.12
2022-10-10T11:36:28.453Z,20.20
2022-10-10T11:39:20.824Z,19.95
2022-10-10T11:42:08.827Z,19.79
2022-10-10T11:44:40.477Z,19.46
2022-10-10T11:47:19.590Z,19.59
2022-10-10T11:49:46.173Z,19.68
2022-10-10T11:52:33.482Z,19.59
2022-10-10T11:55:19.390Z,19.57
2022-10-10T11:58:07.256Z,19.21
2022-10-10T12:00:43.315Z,19.15
2022-10-10T12:03:10.493Z,19.13
2022-10-10T12:05:40.411Z,19.23
2022-10-10T12:08:19.713Z,19.27
2022-10-10T12:10:55.118Z,19.20
2022-10-10T12:13:30.274Z,19.49
2022-10-10T12:16:02.546Z,19.09
2022-10-10T12:18:44.678Z,19.90
2022-10-10T12:21:18.539Z,19.73
2022-10-10T12:23:59.590Z,19.88
2022-10-10T12:26:55.019Z,19.97
2022-10-10T12:29:40.330Z,20.03
2022-10-10T12:32:20.341Z,20.12
2022-10-10T12:34:49.989Z,20.08
2022-10-10T12:37:31.818Z,19.96
2022-10-10T12:40:07.582Z,20.20
2022-10-10T12:42:39.074Z,19.77
2022-10-10T12:45:30.753Z,20.44
2022-10-10T12:48:06.987Z,20.42
2022-10-10T12:50:43.769Z,20.81
2022-10-10T12:53:23.533Z,20.23
2022-10-10T12:55:53.690Z,19.81
2022-10-10T12:58:28.040Z,19.92
2022-10-10T13:01:06.889Z,20.12
2022-10-10T13:03:42.780Z,20.02
2022-10-10T13:06:15.666Z,20.51
2022-10-10T13:08:42.749Z,19.97
2022-10-10T13:11:13.019Z,20.18
2022-10-10T13:13:41.621Z,19.87
2022-10-10T13:16:17.828Z,20.14
2022-10-10T13:18:55.921Z,19.91
2022-10-10T13:21:27.029Z,19.62
2022-10-10T13:24:03.339Z,19.97
2022-10-10T13:26:34.503Z,19.91
2022-10-10T13:29:16.787Z,20.14
2022-10-10T13:31:44.492Z,20.16
2022-10-10T13:34:17.311Z,19.95
2022-10-10T13:36:45.224Z,19.90
2022-10-10T13:39:16.542Z,20.16
2022-10-10T13:41:47.490Z,20.00
2022-10-10T13:44:24.343Z,19.85
2022-10-10T13:46:51.237Z,19.40
2022-10-10T13:49:54.021Z,19.76
2022-10-10T13:52:23.445Z,19.43
2022-10-10T13:54:50.688Z,19.67
2022-10-10T13:57:24.632Z,19.03
2022-10-10T14:00:05.892Z,19.09
2022-10-10T14:02:36.301Z,19.11
2022-10-10T14:05:09.602Z,19.27
2022-10-10T14:07:37.050Z,19.25
2022-10-10T14:10:09.200Z,19.95
2022-10-10T14:12:49.334Z,20.04
2022-10-10T14:15:41.306Z,19.83
2022-10-10T14:18:26.900Z,19.70
2022-10-10T14:20:53.650Z,19.59
2022-10-10T14:23:20.377Z,18.99
2022-10-10T14:25:48.719Z,19.00
2022-10-10T14:28:20.824Z,19.17
2022-10-10T14:30:48.251Z,19.25
2022-10-10T14:33:18.241Z,18.75
2022-10-10T14:35:46.505Z,19.00
2022-10-10T14:38:14.655Z,19.23
2022-10-10T14:40:43.830Z,18.58
2022-10-10T14:43:10.727Z,18.43
2022-10-10T14:45:37.553Z,19.02
2022-10-10T14:48:04.602Z,18.98
2022-10-10T14:50:35.201Z,18.41
2022-10-10T14:53:02.830Z,18.64
2022-10-10T14:55:29.696Z,18.42
2022-10-10T14:57:56.958Z,18.16
2022-10-10T15:00:28.705Z,18.64
2022-10-10T15:02:55.914Z,18.49
2022-10-10T15:05:23.319Z,18.10
2022-10-10T15:07:53.928Z,17.69
2022-10-10T15:10:33.801Z,17.83
2022-10-10T15:13:01.632Z,18.33
2022-10-10T15:15:28.464Z,18.28
2022-10-10T15:17:57.893Z,17.87
2022-10-10T15:20:31.357Z,18.09
2022-10-10T15:23:03.796Z,17.76
2022-10-10T15:25:34.042Z,17.51
2022-10-10T15:28:02.809Z,17.93
2022-10-10T15:30:30.760Z,17.57
2022-10-10T15:32:57.631Z,17.74
2022-10-10T15:35:25.729Z,17.58
2022-10-10T15:37:52.942Z,17.16
2022-10-10T15:40:24.320Z,17.13
2022-10-10T15:42:55.146Z,16.78
2022-10-10T15:45:51.020Z,17.18
2022-10-10T15:48:09.867Z,16.97
2022-10-10T15:50:42.443Z,16.63
2022-10-10T15:53:09.743Z,16.96
2022-10-10T15:55:44.442Z,16.97
2022-10-10T15:58:12.122Z,16.77
2022-10-10T16:00:41.037Z,16.83
2022-10-10T16:03:12.149Z,17.10
2022-10-10T16:05:42.679Z,16.36
2022-10-10T16:08:15.527Z,16.50
2022-10-10T16:10:47.356Z,16.95
2022-10-10T16:13:14.359Z,16.20
2022-10-10T16:15:41.730Z,16.13
2022-10-10T16:20:44.184Z,16.03
2022-10-10T16:23:11.413Z,15.97
2022-10-10T16:25:38.875Z,16.39
2022-10-10T16:28:06.121Z,15.85
2022-10-10T16:30:38.713Z,15.85
2022-10-10T16:33:05.649Z,16.05
2022-10-10T16:35:37.951Z,16.46
2022-10-10T16:38:08.659Z,16.18
2022-10-10T16:40:37.244Z,16.03
2022-10-10T16:43:04.704Z,16.43
2022-10-10T16:45:32.697Z,15.86
2022-10-10T16:48:02.759Z,15.84
2022-10-10T16:50:30.032Z,15.97
2022-10-10T16:52:57.039Z,15.98
2022-10-10T16:55:24.406Z,16.19
2022-10-10T16:57:54.064Z,15.62
2022-10-10T17:00:21.480Z,15.66
2022-10-10T17:02:48.519Z,15.55
2022-10-10T17:05:18.718Z,15.96
2022-10-10T17:07:45.660Z,15.87
2022-10-10T17:10:12.752Z,15.73
2022-10-10T17:12:39.850Z,15.75
2022-10-10T17:15:07.495Z,15.76
2022-10-10T17:17:35.454Z,15.02
2022-10-10T17:20:02.794Z,15.60
2022-10-10T17:22:29.932Z,15.12
2022-10-10T17:24:56.833Z,15.42
2022-10-10T17:27:24.288Z,15.46
2022-10-10T17:29:55.451Z,15.03
2022-10-10T17:32:22.859Z,15.18
2022-10-10T17:34:49.877Z,14.91
2022-10-10T17:37:17.552Z,14.69
2022-10-10T17:39:44.444Z,14.89
2022-10-10T17:42:11.949Z,14.78
2022-10-10T17:44:44.748Z,14.71
2022-10-10T17:47:16.258Z,14.62
2022-10-10T17:49:46.640Z,15.05
2022-10-10T17:52:17.572Z,14.81
2022-10-10T17:54:47.124Z,14.56
2022-10-10T17:57:13.888Z,14.99
2022-10-10T17:59:40.678Z,15.05
2022-10-10T18:02:08.035Z,14.76
2022-10-10T18:04:34.729Z,14.64
2022-10-10T18:07:01.769Z,14.62
2022-10-10T18:09:30.768Z,14.68
2022-10-10T18:11:57.511Z,14.89
2022-10-10T18:14:24.399Z,14.95
2022-10-10T18:16:51.204Z,15.04
2022-10-10T18:19:18.845Z,14.81
2022-10-10T18:21:46.837Z,14.58
2022-10-10T18:24:13.864Z,14.76
2022-10-10T18:26:47.485Z,14.40
2022-10-10T18:29:14.729Z,14.79
2022-10-10T18:31:41.920Z,14.40
2022-10-10T18:34:08.976Z,14.47
2022-10-10T18:36:39.361Z,14.30
2022-10-10T18:39:09.139Z,14.73
2022-10-10T18:41:36.452Z,14.53
2022-10-10T18:44:09.656Z,14.24
2022-10-10T18:46:38.143Z,13.78
2022-10-10T18:49:07.067Z,13.82
2022-10-10T18:51:34.238Z,13.83
2022-10-10T18:54:08.461Z,13.93
2022-10-10T18:56:37.955Z,14.14
2022-10-10T18:59:07.522Z,14.04
2022-10-10T19:01:36.582Z,13.53
2022-10-10T19:04:06.449Z,13.61
2022-10-10T19:06:34.130Z,14.23
2022-10-10T19:09:02.020Z,14.26
2022-10-10T19:11:31.257Z,14.37
2022-10-10T19:14:05.189Z,13.88
2022-10-10T19:16:33.235Z,13.88
2022-10-10T19:19:01.622Z,14.36
2022-10-10T19:21:30.314Z,14.23
2022-10-10T19:24:00.174Z,13.95
2022-10-10T19:26:28.107Z,13.98
2022-10-10T19:28:54.679Z,14.36
2022-10-10T19:31:21.467Z,14.39
2022-10-10T19:33:52.398Z,14.41
2022-10-10T19:36:19.530Z,14.28
2022-10-10T19:38:46.554Z,14.34
2022-10-10T19:41:15.122Z,14.37
2022-10-10T19:43:43.897Z,14.31
2022-10-10T19:46:13.131Z,14.24
2022-10-10T19:48:40.143Z,14.16
2022-10-10T19:51:13.064Z,14.28
2022-10-10T19:53:41.024Z,14.23
2022-10-10T19:56:12.037Z,13.85
2022-10-10T19:58:39.091Z,14.11
2022-10-10T20:01:11.850Z,14.13
2022-10-10T20:03:38.768Z,13.60
2022-10-10T20:06:06.685Z,13.79
2022-10-10T20:08:34.105Z,13.78
2022-10-10T20:11:01.120Z,13.85
2022-10-10T20:13:27.803Z,13.96
2022-10-10T20:15:54.484Z,13.90
2022-10-10T20:18:21.991Z,13.90
2022-10-10T20:20:52.294Z,13.81
2022-10-10T20:23:21.399Z,13.67
2022-10-10T20:25:48.047Z,13.63
2022-10-10T20:28:16.630Z,13.78
2022-10-10T20:30:48.369Z,13.64
2022-10-10T20:33:17.405Z,13.64
2022-10-10T20:35:44.177Z,13.53
2022-10-10T20:38:12.174Z,13.75
2022-10-10T20:40:39.731Z,13.36
2022-10-10T20:43:07.113Z,13.59
2022-10-10T20:45:37.895Z,13.71
2022-10-10T20:48:05.477Z,13.73
2022-10-10T20:50:36.328Z,13.65
2022-10-10T20:53:03.139Z,13.65
2022-10-10T20:55:29.936Z,13.50
2022-10-10T20:57:56.632Z,13.83
2022-10-10T21:00:23.558Z,13.62
2022-10-10T21:02:50.224Z,13.76
2022-10-10T21:05:17.182Z,13.82
2022-10-10T21:07:46.079Z,13.88
2022-10-10T21:10:13.094Z,13.79
2022-10-10T21:12:39.676Z,13.71
2022-10-10T21:15:06.851Z,13.79
2022-10-10T21:17:33.514Z,13.88
2022-10-10T21:20:00.553Z,13.84
2022-10-10T21:22:27.477Z,13.85
2022-10-10T21:24:54.155Z,13.88
2022-10-10T21:27:22.223Z,13.39
2022-10-10T21:29:48.881Z,13.94
2022-10-10T21:32:15.642Z,13.88
2022-10-10T21:34:43.313Z,13.72
2022-10-10T21:37:10.543Z,13.99
2022-10-10T21:39:37.352Z,13.63
2022-10-10T21:42:04.487Z,13.40
2022-10-10T21:44:31.347Z,13.90
2022-10-10T21:46:58.196Z,13.74
2022-10-10T21:49:25.092Z,13.83
2022-10-10T21:51:54.597Z,13.83
2022-10-10T21:54:21.509Z,13.67
2022-10-10T21:56:48.151Z,13.63
2022-10-10T21:59:14.893Z,13.73
2022-10-10T22:01:41.878Z,13.65
2022-10-10T22:04:08.540Z,13.61
2022-10-10T22:06:35.510Z,13.71
2022-10-10T22:09:02.711Z,13.62
2022-10-10T22:11:32.343Z,13.64
2022-10-10T22:13:59.683Z,13.68
2022-10-10T22:16:26.320Z,13.57
2022-10-10T22:18:55.015Z,13.62
2022-10-10T22:21:23.262Z,13.62
2022-10-10T22:23:51.429Z,13.43
2022-10-10T22:26:18.246Z,13.61
2022-10-10T22:28:46.113Z,13.59
2022-10-10T22:31:16.143Z,13.70
2022-10-10T22:33:43.228Z,13.73
2022-10-10T22:36:11.018Z,13.52
2022-10-10T22:38:43.505Z,13.63
2022-10-10T22:41:11.352Z,13.66
2022-10-10T22:43:38.393Z,13.52
2022-10-10T22:46:06.174Z,13.52
2022-10-10T22:48:33.518Z,13.51
2022-10-10T22:51:21.227Z,13.60
2022-10-10T22:53:48.501Z,13.64
2022-10-10T22:56:19.279Z,13.65
2022-10-10T22:58:47.618Z,13.63
2022-10-10T23:01:19.790Z,13.72
2022-10-10T23:03:46.649Z,13.70
2022-10-10T23:06:13.684Z,13.70
2022-10-10T23:08:40.447Z,13.13
2022-10-10T23:11:07.483Z,13.58
2022-10-10T23:13:34.186Z,13.76
2022-10-10T23:16:01.082Z,13.72
2022-10-10T23:18:28.708Z,13.62
2022-10-10T23:20:55.813Z,13.62
2022-10-10T23:23:22.784Z,13.72
2022-10-10T23:25:49.498Z,13.70
2022-10-10T23:28:17.910Z,13.46
2022-10-10T23:30:47.174Z,13.61
2022-10-10T23:33:14.404Z,13.73
2022-10-10T23:35:41.471Z,13.72
2022-10-10T23:38:08.636Z,13.69
2022-10-10T23:40:35.312Z,13.71
2022-10-10T23:43:02.095Z,13.65
2022-10-10T23:45:28.997Z,13.63
2022-10-10T23:47:55.811Z,13.69
2022-10-10T23:50:22.761Z,13.73
2022-10-10T23:52:49.449Z,13.71
2022-10-10T23:55:16.327Z,13.78
2022-10-10T23:57:43.655Z,13.88
